This is the latest recevied weather packets stored in our database for station/object KFVE. If no packets are shown the sender has not sent any weather packets the latest 10 day(s).
| Time | Temp. | Humidity | Pressure | Rain* | Wind** | Luminosity | Snow |
|---|---|---|---|---|---|---|---|
| 1777607008 | 5.56° C | 100% | 1006.8 hPa | - | - | - | - |
| 1777606408 | 5.56° C | 100% | 1006.8 hPa | - | - | - | - |
| 1777605812 | 5.56° C | 100% | 1006.8 hPa | - | - | - | - |
| 1777605208 | 5.56° C | 100% | 1006.8 hPa | - | - | - | - |
| 1777604011 | 5.56° C | 100% | 1015.9 hPa | - | - | - | - |
| 1777603410 | 5.56° C | 100% | 1015.9 hPa | - | - | - | - |
| 1777602815 | 5.56° C | 100% | 1008.1 hPa | - | - | - | - |
| 1777602211 | 5.56° C | 100% | 1008.1 hPa | - | - | - | - |
| 1777601612 | 5.56° C | 100% | 1008.1 hPa | - | - | - | - |
| 1777601010 | 5.56° C | 100% | 1008.1 hPa | - | - | - | - |
| 1777586618 | 7.78° C | 93% | 1008.1 hPa | - | - | - | - |
| 1777585417 | 8.89° C | 87% | 1008.1 hPa | - | - | - | - |
| 1777584210 | 8.89° C | 87% | 1008.1 hPa | - | - | - | - |
| 1777583612 | 8.89° C | 87% | 1008.1 hPa | - | - | - | - |
| 1777580010 | 10° C | 81% | 1008.1 hPa | - | - | - | - |
| 1777579412 | 10° C | 81% | 1008.1 hPa | - | - | - | - |
| 1777577616 | 12.78° C | 43% | 1008.1 hPa | - | - | - | - |
| 1777577010 | 12.78° C | 43% | 1008.1 hPa | - | - | - | - |
| 1777575812 | 12.78° C | 43% | 1008.1 hPa | - | - | - | - |
| 1777574608 | 15° C | 41% | 1008.5 hPa | - | - | - | - |
| 1777568011 | 11.67° C | 62% | 1009.8 hPa | - | - | - | - |
| 1777565614 | 11.67° C | 62% | 1009.8 hPa | - | - | - | - |
| 1777563214 | 10° C | 66% | 1010.5 hPa | - | - | - | - |
| 1777562616 | 10° C | 66% | 1010.5 hPa | - | - | - | - |
| 1777560210 | 8.89° C | 76% | 1010.8 hPa | - | - | - | - |
* Rain since midnight (hover to see other rain measurements)
** Current wind speed in m/s (hover to see current wind gust speed)